sensor_id;sensor_type;location;lat;lon;timestamp;pressure;altitude;pressure_sealevel;temperature;humidity
50057;BME280;36875;49.468;11.200;2023-02-01T00:00:34;98109.69;;;22.40;33.03
50057;BME280;36875;49.468;11.200;2023-02-01T00:02:59;98250.75;;;23.26;32.89
50057;BME280;36875;49.468;11.200;2023-02-01T00:05:25;98253.66;;;23.21;33.02
50057;BME280;36875;49.468;11.200;2023-02-01T00:07:50;98252.84;;;23.21;33.09
50057;BME280;36875;49.468;11.200;2023-02-01T00:10:16;98223.16;;;23.05;32.81
50057;BME280;36875;49.468;11.200;2023-02-01T00:12:44;98245.41;;;23.21;32.70
50057;BME280;36875;49.468;11.200;2023-02-01T00:15:09;98221.53;;;22.96;33.32
50057;BME280;36875;49.468;11.200;2023-02-01T00:17:35;98235.25;;;23.04;33.29
50057;BME280;36875;49.468;11.200;2023-02-01T00:20:00;98245.91;;;23.06;33.11
50057;BME280;36875;49.468;11.200;2023-02-01T00:22:26;98211.81;;;22.81;33.12
50057;BME280;36875;49.468;11.200;2023-02-01T00:24:51;98246.72;;;23.06;33.36
50057;BME280;36875;49.468;11.200;2023-02-01T00:27:17;98251.22;;;23.02;33.28
50057;BME280;36875;49.468;11.200;2023-02-01T00:29:46;98241.88;;;22.95;33.33
50057;BME280;36875;49.468;11.200;2023-02-01T00:32:12;98231.03;;;22.89;33.45
50057;BME280;36875;49.468;11.200;2023-02-01T00:34:38;98230.22;;;22.80;33.25
50057;BME280;36875;49.468;11.200;2023-02-01T00:37:04;98199.56;;;22.61;33.49
50057;BME280;36875;49.468;11.200;2023-02-01T00:39:29;98245.91;;;22.88;33.38
50057;BME280;36875;49.468;11.200;2023-02-01T00:41:55;98234.94;;;22.88;33.44
50057;BME280;36875;49.468;11.200;2023-02-01T00:44:20;98239.59;;;22.88;33.49
50057;BME280;36875;49.468;11.200;2023-02-01T00:46:47;98234.28;;;22.74;33.33
50057;BME280;36875;49.468;11.200;2023-02-01T00:49:13;98236.22;;;22.74;33.66
50057;BME280;36875;49.468;11.200;2023-02-01T00:51:38;98236.53;;;22.72;33.44
50057;BME280;36875;49.468;11.200;2023-02-01T00:54:07;98226.34;;;22.64;33.60
50057;BME280;36875;49.468;11.200;2023-02-01T00:56:32;98241.69;;;22.65;33.63
50057;BME280;36875;49.468;11.200;2023-02-01T00:58:58;98223.75;;;22.50;33.78
50057;BME280;36875;49.468;11.200;2023-02-01T01:01:24;98233.13;;;22.58;33.72
50057;BME280;36875;49.468;11.200;2023-02-01T01:03:53;98170.41;;;22.16;34.04
50057;BME280;36875;49.468;11.200;2023-02-01T01:06:22;98228.13;;;22.60;33.78
50057;BME280;36875;49.468;11.200;2023-02-01T01:08:47;98192.75;;;22.32;33.54
50057;BME280;36875;49.468;11.200;2023-02-01T01:11:15;98186.72;;;22.21;33.86
50057;BME280;36875;49.468;11.200;2023-02-01T01:13:41;98210.47;;;22.35;33.89
50057;BME280;36875;49.468;11.200;2023-02-01T01:16:09;98233.91;;;22.41;33.90
50057;BME280;36875;49.468;11.200;2023-02-01T01:18:35;98229.69;;;22.43;33.98
50057;BME280;36875;49.468;11.200;2023-02-01T01:21:04;98171.53;;;22.06;34.12
50057;BME280;36875;49.468;11.200;2023-02-01T01:23:29;98226.31;;;22.38;33.96
50057;BME280;36875;49.468;11.200;2023-02-01T01:25:55;98220.31;;;22.27;34.21
50057;BME280;36875;49.468;11.200;2023-02-01T01:28:21;98188.44;;;22.00;34.08
50057;BME280;36875;49.468;11.200;2023-02-01T01:30:46;98162.75;;;21.87;34.23
50057;BME280;36875;49.468;11.200;2023-02-01T01:33:12;98221.25;;;22.22;34.08
50057;BME280;36875;49.468;11.200;2023-02-01T01:35:37;98214.28;;;22.16;34.08
50057;BME280;36875;49.468;11.200;2023-02-01T01:38:04;98213.47;;;22.16;34.17
50057;BME280;36875;49.468;11.200;2023-02-01T01:40:31;98216.88;;;22.21;34.28
50057;BME280;36875;49.468;11.200;2023-02-01T01:42:57;98218.66;;;22.17;34.34
50057;BME280;36875;49.468;11.200;2023-02-01T01:45:25;98216.34;;;22.10;34.14
50057;BME280;36875;49.468;11.200;2023-02-01T01:47:53;98221.81;;;22.02;34.40
50057;BME280;36875;49.468;11.200;2023-02-01T01:50:22;98217.47;;;22.01;34.18
50057;BME280;36875;49.468;11.200;2023-02-01T01:52:50;98154.94;;;21.63;34.47
50057;BME280;36875;49.468;11.200;2023-02-01T01:55:19;98218.72;;;21.94;34.52
50057;BME280;36875;49.468;11.200;2023-02-01T01:57:49;98198.19;;;21.74;34.69
50057;BME280;36875;49.468;11.200;2023-02-01T02:00:17;98205.97;;;21.90;34.53
50057;BME280;36875;49.468;11.200;2023-02-01T02:02:46;98194.00;;;21.77;34.51
50057;BME280;36875;49.468;11.200;2023-02-01T02:05:13;98204.03;;;21.82;34.73
50057;BME280;36875;49.468;11.200;2023-02-01T02:07:41;98205.28;;;21.75;34.74
50057;BME280;36875;49.468;11.200;2023-02-01T02:10:11;98203.97;;;21.73;34.52
50057;BME280;36875;49.468;11.200;2023-02-01T02:12:39;98206.53;;;21.69;34.59
50057;BME280;36875;49.468;11.200;2023-02-01T02:15:06;98205.22;;;21.67;34.92
50057;BME280;36875;49.468;11.200;2023-02-01T02:17:36;98203.56;;;21.57;34.58
50057;BME280;36875;49.468;11.200;2023-02-01T02:23:17;98207.44;;;21.56;34.51
50057;BME280;36875;49.468;11.200;2023-02-01T02:26:25;98194.00;;;21.46;34.88
50057;BME280;36875;49.468;11.200;2023-02-01T02:32:32;98191.28;;;21.46;34.80
50057;BME280;36875;49.468;11.200;2023-02-01T02:35:07;98157.94;;;21.21;34.78
50057;BME280;36875;49.468;11.200;2023-02-01T02:37:39;98178.94;;;21.34;34.87
50057;BME280;36875;49.468;11.200;2023-02-01T02:40:13;98176.69;;;21.36;35.02
50057;BME280;36875;49.468;11.200;2023-02-01T02:42:45;98164.41;;;21.25;35.18
50057;BME280;36875;49.468;11.200;2023-02-01T02:45:39;98156.94;;;21.17;34.90
50057;BME280;36875;49.468;11.200;2023-02-01T02:48:28;98176.16;;;21.26;35.12
50057;BME280;36875;49.468;11.200;2023-02-01T02:51:01;98169.63;;;21.13;34.81
50057;BME280;36875;49.468;11.200;2023-02-01T02:53:53;98159.28;;;21.01;35.17
50057;BME280;36875;49.468;11.200;2023-02-01T02:56:41;98187.69;;;21.14;35.06
50057;BME280;36875;49.468;11.200;2023-02-01T02:59:26;98187.19;;;21.12;34.99
50057;BME280;36875;49.468;11.200;2023-02-01T03:02:12;98160.50;;;20.95;35.00
50057;BME280;36875;49.468;11.200;2023-02-01T03:04:57;98170.06;;;21.06;35.24
50057;BME280;36875;49.468;11.200;2023-02-01T03:07:53;98166.66;;;21.01;35.22
50057;BME280;36875;49.468;11.200;2023-02-01T03:10:31;98136.25;;;20.79;35.33
50057;BME280;36875;49.468;11.200;2023-02-01T03:13:02;98158.06;;;20.93;35.33
50057;BME280;36875;49.468;11.200;2023-02-01T03:15:32;98147.66;;;20.95;35.52
50057;BME280;36875;49.468;11.200;2023-02-01T03:18:01;98158.72;;;20.90;35.34
50057;BME280;36875;49.468;11.200;2023-02-01T03:20:31;98156.59;;;20.87;35.00
50057;BME280;36875;49.468;11.200;2023-02-01T03:22:59;98137.25;;;20.84;35.33
50057;BME280;36875;49.468;11.200;2023-02-01T03:25:28;98134.81;;;20.82;35.48
50057;BME280;36875;49.468;11.200;2023-02-01T03:27:57;98119.78;;;20.71;35.40
50057;BME280;36875;49.468;11.200;2023-02-01T03:30:27;98141.53;;;20.76;35.42
50057;BME280;36875;49.468;11.200;2023-02-01T03:32:56;98092.63;;;20.38;35.48
50057;BME280;36875;49.468;11.200;2023-02-01T03:35:30;98127.91;;;20.62;35.45
50057;BME280;36875;49.468;11.200;2023-02-01T03:38:04;98127.19;;;20.56;35.33
50057;BME280;36875;49.468;11.200;2023-02-01T03:40:35;98141.78;;;20.66;35.34
50057;BME280;36875;49.468;11.200;2023-02-01T03:43:04;98137.25;;;20.61;35.22
50057;BME280;36875;49.468;11.200;2023-02-01T03:45:35;98116.72;;;20.50;35.35
50057;BME280;36875;49.468;11.200;2023-02-01T03:48:06;98130.56;;;20.53;35.75
50057;BME280;36875;49.468;11.200;2023-02-01T03:50:33;98136.53;;;20.55;35.40
50057;BME280;36875;49.468;11.200;2023-02-01T03:53:05;98132.81;;;20.51;35.56
50057;BME280;36875;49.468;11.200;2023-02-01T03:55:32;98136.94;;;20.49;35.38
50057;BME280;36875;49.468;11.200;2023-02-01T03:58:01;98136.56;;;20.41;35.46
50057;BME280;36875;49.468;11.200;2023-02-01T04:00:29;98140.94;;;20.42;35.51
50057;BME280;36875;49.468;11.200;2023-02-01T04:02:54;98131.41;;;20.40;35.47
50057;BME280;36875;49.468;11.200;2023-02-01T04:05:21;98103.81;;;20.28;35.35
50057;BME280;36875;49.468;11.200;2023-02-01T04:07:46;98122.22;;;20.36;35.71
50057;BME280;36875;49.468;11.200;2023-02-01T04:10:13;98103.31;;;20.26;35.76
50057;BME280;36875;49.468;11.200;2023-02-01T04:12:39;98101.00;;;20.19;35.14
50057;BME280;36875;49.468;11.200;2023-02-01T04:15:06;98096.66;;;20.18;35.47
50057;BME280;36875;49.468;11.200;2023-02-01T04:17:32;98068.03;;;20.01;35.56
50057;BME280;36875;49.468;11.200;2023-02-01T04:19:57;98114.88;;;20.22;35.79
50057;BME280;36875;49.468;11.200;2023-02-01T04:22:23;98099.38;;;20.18;35.35
50057;BME280;36875;49.468;11.200;2023-02-01T04:24:48;98107.56;;;20.18;35.29
50057;BME280;36875;49.468;11.200;2023-02-01T04:27:16;98094.16;;;20.08;35.63
50057;BME280;36875;49.468;11.200;2023-02-01T04:29:41;98109.81;;;20.16;35.50
50057;BME280;36875;49.468;11.200;2023-02-01T04:32:07;98113.97;;;20.13;35.46
50057;BME280;36875;49.468;11.200;2023-02-01T04:34:33;98110.34;;;20.04;35.80
50057;BME280;36875;49.468;11.200;2023-02-01T04:36:58;98101.75;;;19.97;35.47
50057;BME280;36875;49.468;11.200;2023-02-01T04:39:24;98094.66;;;19.96;35.82
50057;BME280;36875;49.468;11.200;2023-02-01T04:41:50;98109.03;;;20.01;35.60
50057;BME280;36875;49.468;11.200;2023-02-01T04:44:17;98117.56;;;20.00;35.87
50057;BME280;36875;49.468;11.200;2023-02-01T04:46:46;98124.41;;;19.97;35.48
50057;BME280;36875;49.468;11.200;2023-02-01T04:49:13;98109.47;;;19.95;35.35
50057;BME280;36875;49.468;11.200;2023-02-01T04:51:39;98078.22;;;19.73;35.65
50057;BME280;36875;49.468;11.200;2023-02-01T04:54:05;98107.31;;;19.92;35.70
50057;BME280;36875;49.468;11.200;2023-02-01T04:56:30;98090.34;;;19.81;35.75
50057;BME280;36875;49.468;11.200;2023-02-01T04:58:56;98103.91;;;19.86;35.67
50057;BME280;36875;49.468;11.200;2023-02-01T05:01:23;98097.63;;;19.86;35.69
50057;BME280;36875;49.468;11.200;2023-02-01T05:03:49;98104.50;;;19.83;35.53
50057;BME280;36875;49.468;11.200;2023-02-01T05:06:15;98095.00;;;19.80;35.48
50057;BME280;36875;49.468;11.200;2023-02-01T05:08:40;98071.63;;;19.60;35.60
50057;BME280;36875;49.468;11.200;2023-02-01T05:11:06;98097.03;;;19.75;35.70
50057;BME280;36875;49.468;11.200;2023-02-01T05:13:31;98102.78;;;19.73;35.61
50057;BME280;36875;49.468;11.200;2023-02-01T05:16:15;98085.97;;;19.66;35.52
50057;BME280;36875;49.468;11.200;2023-02-01T05:18:42;98070.34;;;19.58;35.36
50057;BME280;36875;49.468;11.200;2023-02-01T05:21:08;98090.34;;;19.67;35.45
50057;BME280;36875;49.468;11.200;2023-02-01T05:23:33;98078.53;;;19.58;35.93
50057;BME280;36875;49.468;11.200;2023-02-01T05:26:19;98084.97;;;19.62;35.52
50057;BME280;36875;49.468;11.200;2023-02-01T05:28:44;98097.84;;;19.61;35.56
50057;BME280;36875;49.468;11.200;2023-02-01T05:31:10;98102.25;;;19.57;35.56
50057;BME280;36875;49.468;11.200;2023-02-01T05:33:35;98039.09;;;19.09;35.65
50057;BME280;36875;49.468;11.200;2023-02-01T05:36:03;98112.69;;;19.55;35.91
50057;BME280;36875;49.468;11.200;2023-02-01T05:38:28;98112.19;;;19.53;35.59
50057;BME280;36875;49.468;11.200;2023-02-01T05:40:54;98113.59;;;19.51;35.77
50057;BME280;36875;49.468;11.200;2023-02-01T05:43:20;98096.19;;;19.33;35.83
50057;BME280;36875;49.468;11.200;2023-02-01T05:45:45;98128.13;;;19.46;35.87
50057;BME280;36875;49.468;11.200;2023-02-01T05:48:11;98102.44;;;19.33;35.84
50057;BME280;36875;49.468;11.200;2023-02-01T05:50:36;98137.75;;;19.43;35.42
50057;BME280;36875;49.468;11.200;2023-02-01T05:53:03;98118.94;;;19.42;35.61
50057;BME280;36875;49.468;11.200;2023-02-01T05:55:29;98114.09;;;19.39;35.50
50057;BME280;36875;49.468;11.200;2023-02-01T05:57:54;98087.91;;;19.24;35.74
50057;BME280;36875;49.468;11.200;2023-02-01T06:00:21;98106.53;;;19.36;35.84
50057;BME280;36875;49.468;11.200;2023-02-01T06:02:46;98104.09;;;19.34;35.83
50057;BME280;36875;49.468;11.200;2023-02-01T06:05:12;98100.03;;;19.32;35.95
50057;BME280;36875;49.468;11.200;2023-02-01T06:07:37;98083.66;;;19.18;35.64
50057;BME280;36875;49.468;11.200;2023-02-01T06:10:05;98067.78;;;19.06;35.56
50057;BME280;36875;49.468;11.200;2023-02-01T06:12:30;98100.44;;;19.25;35.57
50057;BME280;36875;49.468;11.200;2023-02-01T06:14:56;98098.81;;;19.24;35.64
50057;BME280;36875;49.468;11.200;2023-02-01T06:17:21;98085.47;;;19.22;35.62
50057;BME280;36875;49.468;11.200;2023-02-01T06:19:47;98088.50;;;19.21;35.50
50057;BME280;36875;49.468;11.200;2023-02-01T06:22:13;98091.84;;;19.18;35.94
50057;BME280;36875;49.468;11.200;2023-02-01T06:24:39;98047.34;;;18.90;35.64
50057;BME280;36875;49.468;11.200;2023-02-01T06:27:07;98086.69;;;19.16;36.04
50057;BME280;36875;49.468;11.200;2023-02-01T06:29:34;98095.78;;;19.12;35.99
50057;BME280;36875;49.468;11.200;2023-02-01T06:32:00;98088.91;;;19.14;35.84
50057;BME280;36875;49.468;11.200;2023-02-01T06:34:25;98096.59;;;19.12;36.46
50057;BME280;36875;49.468;11.200;2023-02-01T06:36:51;98094.44;;;19.09;36.45
50057;BME280;36875;49.468;11.200;2023-02-01T06:39:16;98102.91;;;19.07;36.93
50057;BME280;36875;49.468;11.200;2023-02-01T06:41:42;98097.47;;;19.07;36.78
50057;BME280;36875;49.468;11.200;2023-02-01T06:44:09;98095.56;;;19.08;36.20
50057;BME280;36875;49.468;11.200;2023-02-01T06:46:34;98094.94;;;19.11;35.98
50057;BME280;36875;49.468;11.200;2023-02-01T06:49:00;98087.47;;;19.17;36.19
50057;BME280;36875;49.468;11.200;2023-02-01T06:51:27;98074.75;;;19.12;36.55
50057;BME280;36875;49.468;11.200;2023-02-01T06:53:53;98090.53;;;19.29;36.11
50057;BME280;36875;49.468;11.200;2023-02-01T06:56:19;98082.03;;;19.44;36.18
50057;BME280;36875;49.468;11.200;2023-02-01T06:58:45;98086.59;;;19.49;35.71
50057;BME280;36875;49.468;11.200;2023-02-01T07:01:12;98072.56;;;19.56;35.34
50057;BME280;36875;49.468;11.200;2023-02-01T07:03:38;98088.13;;;19.69;35.75
50057;BME280;36875;49.468;11.200;2023-02-01T07:06:05;98095.72;;;19.86;35.39
50057;BME280;36875;49.468;11.200;2023-02-01T07:08:32;98108.03;;;19.97;35.35
50057;BME280;36875;49.468;11.200;2023-02-01T07:11:01;98101.84;;;20.06;35.04
50057;BME280;36875;49.468;11.200;2023-02-01T07:13:26;98089.31;;;20.05;35.29
50057;BME280;36875;49.468;11.200;2023-02-01T07:15:52;98106.66;;;20.22;35.35
50057;BME280;36875;49.468;11.200;2023-02-01T07:18:19;98105.88;;;20.22;35.30
50057;BME280;36875;49.468;11.200;2023-02-01T07:20:49;98096.34;;;20.19;35.43
50057;BME280;36875;49.468;11.200;2023-02-01T07:23:15;98101.78;;;20.33;35.45
50057;BME280;36875;49.468;11.200;2023-02-01T07:25:40;98108.25;;;20.37;35.31
50057;BME280;36875;49.468;11.200;2023-02-01T07:28:06;98102.41;;;20.53;34.69
50057;BME280;36875;49.468;11.200;2023-02-01T07:30:31;98105.72;;;20.64;34.45
50057;BME280;36875;49.468;11.200;2023-02-01T07:32:57;98100.91;;;20.60;34.88
50057;BME280;36875;49.468;11.200;2023-02-01T07:35:27;98069.75;;;20.48;34.42
50057;BME280;36875;49.468;11.200;2023-02-01T07:37:53;98106.66;;;20.82;34.49
50057;BME280;36875;49.468;11.200;2023-02-01T07:40:18;98116.94;;;20.76;34.04
50057;BME280;36875;49.468;11.200;2023-02-01T07:42:48;98106.47;;;20.78;33.64
50057;BME280;36875;49.468;11.200;2023-02-01T07:45:13;98107.84;;;20.67;33.64
50057;BME280;36875;49.468;11.200;2023-02-01T07:47:40;98098.06;;;20.52;33.83
50057;BME280;36875;49.468;11.200;2023-02-01T07:50:06;98108.81;;;20.48;33.12
50057;BME280;36875;49.468;11.200;2023-02-01T07:52:33;98079.53;;;20.26;32.91
50057;BME280;36875;49.468;11.200;2023-02-01T07:54:59;98112.91;;;20.37;33.14
50057;BME280;36875;49.468;11.200;2023-02-01T07:57:24;98105.63;;;20.32;32.78
50057;BME280;36875;49.468;11.200;2023-02-01T07:59:50;98088.63;;;20.21;32.63
50057;BME280;36875;49.468;11.200;2023-02-01T08:02:34;98104.41;;;20.38;32.35
50057;BME280;36875;49.468;11.200;2023-02-01T08:04:59;98097.22;;;20.29;32.19
50057;BME280;36875;49.468;11.200;2023-02-01T08:07:25;98080.06;;;20.14;32.75
50057;BME280;36875;49.468;11.200;2023-02-01T08:09:51;98083.66;;;20.23;32.21
50057;BME280;36875;49.468;11.200;2023-02-01T08:12:17;98080.94;;;20.23;32.17
50057;BME280;36875;49.468;11.200;2023-02-01T08:14:43;98091.88;;;20.23;31.68
50057;BME280;36875;49.468;11.200;2023-02-01T08:17:08;98092.69;;;20.24;32.05
50057;BME280;36875;49.468;11.200;2023-02-01T08:19:34;98084.75;;;20.36;31.32
50057;BME280;36875;49.468;11.200;2023-02-01T08:21:59;98091.72;;;20.20;31.70
50057;BME280;36875;49.468;11.200;2023-02-01T08:24:27;98099.25;;;20.37;32.08
50057;BME280;36875;49.468;11.200;2023-02-01T08:26:54;98094.06;;;20.35;32.13
50057;BME280;36875;49.468;11.200;2023-02-01T08:29:19;98043.34;;;20.07;32.40
50057;BME280;36875;49.468;11.200;2023-02-01T08:31:45;98068.28;;;20.28;32.00
50057;BME280;36875;49.468;11.200;2023-02-01T08:34:10;98107.38;;;20.65;32.08
50057;BME280;36875;49.468;11.200;2023-02-01T08:36:37;98112.13;;;20.59;32.56
50057;BME280;36875;49.468;11.200;2023-02-01T08:39:03;98115.06;;;20.63;32.57
50057;BME280;36875;49.468;11.200;2023-02-01T08:41:30;98121.81;;;20.88;32.22
50057;BME280;36875;49.468;11.200;2023-02-01T08:43:57;98112.09;;;20.95;32.15
50057;BME280;36875;49.468;11.200;2023-02-01T08:46:23;98121.94;;;21.05;32.41
50057;BME280;36875;49.468;11.200;2023-02-01T08:48:49;98124.00;;;20.99;32.67
50057;BME280;36875;49.468;11.200;2023-02-01T08:51:17;98129.75;;;21.21;32.22
50057;BME280;36875;49.468;11.200;2023-02-01T08:53:43;98139.66;;;21.30;31.91
50057;BME280;36875;49.468;11.200;2023-02-01T08:56:10;98133.38;;;21.38;32.23
50057;BME280;36875;49.468;11.200;2023-02-01T08:58:36;98129.50;;;21.31;32.20
50057;BME280;36875;49.468;11.200;2023-02-01T09:01:04;98126.09;;;21.25;32.26
50057;BME280;36875;49.468;11.200;2023-02-01T09:03:30;98116.25;;;21.24;32.28
50057;BME280;36875;49.468;11.200;2023-02-01T09:06:00;98126.88;;;21.26;32.52
50057;BME280;36875;49.468;11.200;2023-02-01T09:08:28;98134.66;;;21.32;32.41
50057;BME280;36875;49.468;11.200;2023-02-01T09:10:59;98136.31;;;21.11;32.73
50057;BME280;36875;49.468;11.200;2023-02-01T09:13:25;98138.56;;;21.09;33.18
50057;BME280;36875;49.468;11.200;2023-02-01T09:15:50;98118.06;;;21.06;32.75
50057;BME280;36875;49.468;11.200;2023-02-01T09:18:17;98129.13;;;21.24;32.79
50057;BME280;36875;49.468;11.200;2023-02-01T09:20:43;98126.69;;;21.22;32.73
50057;BME280;36875;49.468;11.200;2023-02-01T09:23:10;98144.59;;;21.28;32.95
50057;BME280;36875;49.468;11.200;2023-02-01T09:25:36;98159.38;;;21.18;32.77
50057;BME280;36875;49.468;11.200;2023-02-01T09:28:02;98155.53;;;21.20;32.90
50057;BME280;36875;49.468;11.200;2023-02-01T09:30:29;98166.84;;;21.35;32.65
50057;BME280;36875;49.468;11.200;2023-02-01T09:32:54;98162.34;;;21.31;32.56
50057;BME280;36875;49.468;11.200;2023-02-01T09:35:21;98165.50;;;21.24;33.08
50057;BME280;36875;49.468;11.200;2023-02-01T09:37:47;98166.00;;;21.26;33.00
50057;BME280;36875;49.468;11.200;2023-02-01T09:40:14;98143.44;;;21.21;32.80
50057;BME280;36875;49.468;11.200;2023-02-01T09:42:50;98171.00;;;21.47;32.68
50057;BME280;36875;49.468;11.200;2023-02-01T09:45:29;98195.69;;;21.33;33.01
50057;BME280;36875;49.468;11.200;2023-02-01T09:48:00;98196.47;;;21.33;32.76
50057;BME280;36875;49.468;11.200;2023-02-01T09:50:34;98196.66;;;21.37;32.72
50057;BME280;36875;49.468;11.200;2023-02-01T09:53:03;98198.59;;;21.36;32.88
50057;BME280;36875;49.468;11.200;2023-02-01T09:55:34;98213.88;;;21.37;32.85
50057;BME280;36875;49.468;11.200;2023-02-01T09:58:04;98215.81;;;21.37;33.29
50057;BME280;36875;49.468;11.200;2023-02-01T10:00:34;98211.31;;;21.32;32.94
50057;BME280;36875;49.468;11.200;2023-02-01T10:03:01;98214.16;;;21.27;33.17
50057;BME280;36875;49.468;11.200;2023-02-01T10:05:43;98209.69;;;21.09;33.21
50057;BME280;36875;49.468;11.200;2023-02-01T10:08:19;98223.97;;;21.28;32.81
50057;BME280;36875;49.468;11.200;2023-02-01T10:10:52;98205.03;;;21.09;33.14
50057;BME280;36875;49.468;11.200;2023-02-01T10:13:33;98216.59;;;21.29;33.16
50057;BME280;36875;49.468;11.200;2023-02-01T10:16:12;98209.88;;;21.12;33.34
50057;BME280;36875;49.468;11.200;2023-02-01T10:18:50;98171.50;;;20.81;33.42
50057;BME280;36875;49.468;11.200;2023-02-01T10:21:27;98164.91;;;20.82;33.08
50057;BME280;36875;49.468;11.200;2023-02-01T10:24:11;98219.31;;;21.06;33.23
50057;BME280;36875;49.468;11.200;2023-02-01T10:26:45;98219.66;;;21.05;33.53
50057;BME280;36875;49.468;11.200;2023-02-01T10:29:16;98212.75;;;21.07;33.38
50057;BME280;36875;49.468;11.200;2023-02-01T10:31:43;98206.16;;;21.08;33.00
50057;BME280;36875;49.468;11.200;2023-02-01T10:34:16;98210.94;;;21.03;32.84
50057;BME280;36875;49.468;11.200;2023-02-01T10:36:50;98203.66;;;20.98;33.03
50057;BME280;36875;49.468;11.200;2023-02-01T10:39:17;98195.75;;;20.96;33.36
50057;BME280;36875;49.468;11.200;2023-02-01T10:41:43;98193.63;;;20.93;33.15
50057;BME280;36875;49.468;11.200;2023-02-01T10:44:12;98183.44;;;20.85;33.02
50057;BME280;36875;49.468;11.200;2023-02-01T10:46:39;98170.34;;;20.73;33.67
50057;BME280;36875;49.468;11.200;2023-02-01T10:49:08;98194.88;;;20.87;33.66
50057;BME280;36875;49.468;11.200;2023-02-01T10:51:42;98193.59;;;20.85;33.60
50057;BME280;36875;49.468;11.200;2023-02-01T10:54:15;98194.19;;;20.82;33.46
50057;BME280;36875;49.468;11.200;2023-02-01T10:56:43;98196.63;;;20.83;33.85
50057;BME280;36875;49.468;11.200;2023-02-01T10:59:15;98200.28;;;20.78;33.81
50057;BME280;36875;49.468;11.200;2023-02-01T11:01:42;98190.78;;;20.76;34.20
50057;BME280;36875;49.468;11.200;2023-02-01T11:04:11;98187.53;;;20.74;34.15
50057;BME280;36875;49.468;11.200;2023-02-01T11:06:39;98193.97;;;20.92;34.07
50057;BME280;36875;49.468;11.200;2023-02-01T11:09:16;98171.31;;;20.77;34.24
50057;BME280;36875;49.468;11.200;2023-02-01T11:11:54;98189.34;;;20.78;34.31
50057;BME280;36875;49.468;11.200;2023-02-01T11:14:35;98206.56;;;20.79;34.53
50057;BME280;36875;49.468;11.200;2023-02-01T11:17:17;98179.66;;;20.72;34.62
50057;BME280;36875;49.468;11.200;2023-02-01T11:19:44;98155.03;;;20.58;34.29
50057;BME280;36875;49.468;11.200;2023-02-01T11:22:11;98164.97;;;20.68;34.45
50057;BME280;36875;49.468;11.200;2023-02-01T11:24:38;98153.13;;;20.59;34.32
50057;BME280;36875;49.468;11.200;2023-02-01T11:27:05;98160.13;;;20.65;34.50
50057;BME280;36875;49.468;11.200;2023-02-01T11:29:41;98153.53;;;20.66;34.63
50057;BME280;36875;49.468;11.200;2023-02-01T11:32:09;98132.16;;;20.54;34.66
50057;BME280;36875;49.468;11.200;2023-02-01T11:34:41;98147.25;;;20.66;34.30
50057;BME280;36875;49.468;11.200;2023-02-01T11:37:17;98120.34;;;20.45;34.40
50057;BME280;36875;49.468;11.200;2023-02-01T11:39:53;98140.25;;;20.59;34.46
50057;BME280;36875;49.468;11.200;2023-02-01T11:42:19;98134.78;;;20.59;34.58
50057;BME280;36875;49.468;11.200;2023-02-01T11:44:47;98126.09;;;20.57;34.29
50057;BME280;36875;49.468;11.200;2023-02-01T11:47:22;98138.25;;;20.65;34.53
50057;BME280;36875;49.468;11.200;2023-02-01T11:49:49;98123.16;;;20.68;34.43
50057;BME280;36875;49.468;11.200;2023-02-01T11:52:20;98122.03;;;20.69;34.24
50057;BME280;36875;49.468;11.200;2023-02-01T11:55:05;98121.91;;;20.74;34.42
50057;BME280;36875;49.468;11.200;2023-02-01T11:57:45;98119.06;;;20.79;34.21
50057;BME280;36875;49.468;11.200;2023-02-01T12:00:34;98099.25;;;20.59;34.32
50057;BME280;36875;49.468;11.200;2023-02-01T12:03:38;98118.69;;;20.72;34.38
50057;BME280;36875;49.468;11.200;2023-02-01T12:06:10;98123.88;;;20.82;33.92
50057;BME280;36875;49.468;11.200;2023-02-01T12:08:52;98110.69;;;20.84;34.07
50057;BME280;36875;49.468;11.200;2023-02-01T12:11:30;98113.78;;;20.83;34.02
50057;BME280;36875;49.468;11.200;2023-02-01T12:14:07;98126.56;;;20.96;33.56
50057;BME280;36875;49.468;11.200;2023-02-01T12:16:45;98114.28;;;20.93;33.65
50057;BME280;36875;49.468;11.200;2023-02-01T12:19:33;98118.03;;;20.97;33.84
50057;BME280;36875;49.468;11.200;2023-02-01T12:22:18;98114.03;;;21.04;33.61
50057;BME280;36875;49.468;11.200;2023-02-01T12:27:46;98082.72;;;20.87;33.83
50057;BME280;36875;49.468;11.200;2023-02-01T12:30:30;98093.06;;;20.90;33.84
50057;BME280;36875;49.468;11.200;2023-02-01T12:33:08;98062.41;;;20.79;33.64
50057;BME280;36875;49.468;11.200;2023-02-01T12:35:44;98108.03;;;21.24;33.64
50057;BME280;36875;49.468;11.200;2023-02-01T12:38:26;98102.06;;;21.22;33.74
50057;BME280;36875;49.468;11.200;2023-02-01T12:41:11;98086.28;;;21.19;33.85
50057;BME280;36875;49.468;11.200;2023-02-01T12:43:45;98091.03;;;21.36;33.53
50057;BME280;36875;49.468;11.200;2023-02-01T12:46:15;98090.06;;;21.41;33.41
50057;BME280;36875;49.468;11.200;2023-02-01T12:48:52;98097.66;;;21.44;33.26
50057;BME280;36875;49.468;11.200;2023-02-01T12:51:21;98094.38;;;21.64;33.06
50057;BME280;36875;49.468;11.200;2023-02-01T12:53:50;98091.50;;;21.69;33.00
50057;BME280;36875;49.468;11.200;2023-02-01T12:56:20;98094.72;;;21.71;32.87
50057;BME280;36875;49.468;11.200;2023-02-01T12:58:50;98072.75;;;21.54;32.86
50057;BME280;36875;49.468;11.200;2023-02-01T13:01:20;98091.75;;;21.50;32.77
50057;BME280;36875;49.468;11.200;2023-02-01T13:03:55;98086.91;;;21.47;33.23
50057;BME280;36875;49.468;11.200;2023-02-01T13:06:26;98089.75;;;21.42;33.44
50057;BME280;36875;49.468;11.200;2023-02-01T13:08:57;98089.38;;;21.66;33.02
50057;BME280;36875;49.468;11.200;2023-02-01T13:11:29;98095.84;;;21.70;32.91